Time;durP1;ratioP1;P1;durP2;ratioP2;P2;SDS_P1;SDS_P2;PMS_P1;PMS_P2;Temp;Humidity;BMP_temperature;BMP_pressure;BME280_temperature;BME280_humidity;BME280_pressure;Samples;Min_cycle;Max_cycle;Signal;HPM_P1;HPM_P2
2023/12/10 00:00:18;;;;;;;166.80;95.50;;;;;;;-4.73;100.00;98128.67;109540;1251;67024;-76
2023/12/10 00:03:05;;;;;;;167.20;94.70;;;;;;;-4.75;100.00;98124.39;109560;1251;62488;-75
2023/12/10 00:05:32;;;;;;;168.90;94.30;;;;;;;-4.77;100.00;98120.63;109544;1251;63333;-74
2023/12/10 00:07:58;;;;;;;165.60;97.20;;;;;;;-4.78;100.00;98119.60;109544;1251;58990;-75
2023/12/10 00:10:25;;;;;;;173.40;100.40;;;;;;;-4.79;100.00;98120.49;109595;1251;58920;-75
2023/12/10 00:12:51;;;;;;;168.50;96.00;;;;;;;-4.80;100.00;98117.20;109582;1251;66046;-76
2023/12/10 00:15:18;;;;;;;170.00;96.50;;;;;;;-4.81;100.00;98120.36;109554;1251;60985;-74
2023/12/10 00:17:45;;;;;;;172.50;98.30;;;;;;;-4.83;100.00;98121.61;109571;1251;65302;-76
2023/12/10 00:20:12;;;;;;;185.60;102.90;;;;;;;-4.86;100.00;98114.89;109538;1251;58948;-75
2023/12/10 00:22:38;;;;;;;159.70;94.50;;;;;;;-4.88;100.00;98102.64;108779;1251;1003028;-75
2023/12/10 00:25:06;;;;;;;182.80;98.30;;;;;;;-4.92;100.00;98089.73;109573;1250;59340;-75
2023/12/10 00:27:32;;;;;;;177.80;101.50;;;;;;;-4.96;100.00;98089.47;109574;1251;61502;-75
2023/12/10 00:29:59;;;;;;;179.70;101.80;;;;;;;-5.00;100.00;98094.55;109533;1251;65065;-74
2023/12/10 00:32:26;;;;;;;170.30;98.60;;;;;;;-5.04;100.00;98101.04;109533;1251;58955;-74
2023/12/10 00:34:52;;;;;;;169.70;96.10;;;;;;;-5.09;100.00;98107.02;109569;1251;60055;-74
2023/12/10 00:37:19;;;;;;;181.90;99.60;;;;;;;-5.12;100.00;98108.64;109598;1251;66960;-75
2023/12/10 00:39:45;;;;;;;188.40;101.90;;;;;;;-5.13;100.00;98110.55;109579;1251;61127;-75
2023/12/10 00:42:12;;;;;;;178.00;101.90;;;;;;;-5.15;100.00;98104.88;109512;1251;64086;-75
2023/12/10 00:44:39;;;;;;;189.80;107.00;;;;;;;-5.15;100.00;98112.33;109553;1251;59287;-75
2023/12/10 00:47:06;;;;;;;185.00;103.40;;;;;;;-5.14;100.00;98113.34;109568;1251;59102;-74
2023/12/10 00:49:32;;;;;;;175.50;100.20;;;;;;;-5.15;100.00;98111.13;109542;1251;67139;-75
2023/12/10 00:51:59;;;;;;;189.30;105.40;;;;;;;-5.17;100.00;98107.52;109583;1251;59701;-75
2023/12/10 00:54:25;;;;;;;191.50;109.70;;;;;;;-5.18;100.00;98099.75;109553;1251;65099;-76
2023/12/10 00:56:52;;;;;;;185.30;106.00;;;;;;;-5.18;100.00;98098.02;109559;1251;58914;-74
2023/12/10 00:59:19;;;;;;;192.70;106.90;;;;;;;-5.18;100.00;98098.88;109363;1251;59142;-74
2023/12/10 01:01:45;;;;;;;180.00;103.30;;;;;;;-5.16;100.00;98097.29;109583;1255;64732;-75
2023/12/10 01:04:12;;;;;;;201.70;112.80;;;;;;;-5.15;100.00;98096.74;109276;1250;61030;-75
2023/12/10 01:06:38;;;;;;;188.10;106.80;;;;;;;-5.15;100.00;98096.39;109530;1251;65154;-75
2023/12/10 01:09:05;;;;;;;198.90;109.00;;;;;;;-5.15;100.00;98093.81;109508;1251;59185;-75
2023/12/10 01:11:32;;;;;;;182.70;103.60;;;;;;;-5.14;100.00;98092.73;109603;1250;58938;-75
2023/12/10 01:13:58;;;;;;;175.60;100.30;;;;;;;-5.12;100.00;98098.77;109307;1251;66609;-73
2023/12/10 01:16:25;;;;;;;179.50;105.50;;;;;;;-5.11;100.00;98110.70;109584;1251;61004;-75
2023/12/10 01:18:53;;;;;;;172.40;98.70;;;;;;;-5.10;100.00;98100.80;109579;1251;65161;-75
2023/12/10 01:21:19;;;;;;;194.10;108.50;;;;;;;-5.08;100.00;98089.66;109562;1251;59007;-75
2023/12/10 01:23:48;;;;;;;171.50;102.20;;;;;;;-5.04;100.00;98084.75;109535;1251;58940;-74
2023/12/10 01:26:14;;;;;;;179.00;104.20;;;;;;;-5.01;100.00;98072.05;109359;1251;64725;-75
2023/12/10 01:28:41;;;;;;;185.80;103.30;;;;;;;-4.98;100.00;98066.11;109569;1251;60069;-75
2023/12/10 01:31:08;;;;;;;179.90;103.00;;;;;;;-4.94;100.00;98069.68;109556;1251;65145;-75
2023/12/10 01:33:34;;;;;;;189.80;108.10;;;;;;;-4.92;100.00;98062.35;109566;1251;59051;-75
2023/12/10 01:36:01;;;;;;;178.70;105.40;;;;;;;-4.89;100.00;98053.27;109565;1251;59140;-74
2023/12/10 01:38:28;;;;;;;179.50;98.90;;;;;;;-4.86;100.00;98047.31;109598;1251;66975;-75
2023/12/10 01:40:55;;;;;;;186.10;106.30;;;;;;;-4.83;100.00;98046.56;109563;1254;61090;-74
2023/12/10 01:43:21;;;;;;;173.10;98.80;;;;;;;-4.80;100.00;98033.17;109526;1251;65093;-74
2023/12/10 01:45:50;;;;;;;176.90;102.70;;;;;;;-4.77;100.00;98027.74;109513;1251;59312;-75
2023/12/10 01:48:20;;;;;;;166.80;93.20;;;;;;;-4.73;100.00;98021.77;109540;1251;58886;-75
2023/12/10 01:50:47;;;;;;;159.80;95.90;;;;;;;-4.68;100.00;98019.73;109396;1251;64741;-74
2023/12/10 01:53:15;;;;;;;170.60;98.70;;;;;;;-4.63;100.00;98023.11;109541;1251;61069;-74
2023/12/10 01:55:42;;;;;;;164.50;98.60;;;;;;;-4.58;100.00;98022.31;109541;1251;65247;-74
2023/12/10 01:58:09;;;;;;;160.70;94.30;;;;;;;-4.53;100.00;98016.85;109521;1251;58946;-73
2023/12/10 02:00:38;;;;;;;173.00;98.20;;;;;;;-4.49;100.00;98013.45;109551;1251;58902;-74
2023/12/10 02:03:04;;;;;;;174.00;101.40;;;;;;;-4.46;100.00;98011.30;109591;1252;67048;-74
2023/12/10 02:05:31;;;;;;;163.80;94.90;;;;;;;-4.45;100.00;98000.86;108770;1251;1003229;-75
2023/12/10 02:07:58;;;;;;;171.30;98.10;;;;;;;-4.42;100.00;97991.09;108707;1251;1002454;-74
2023/12/10 02:10:25;;;;;;;166.90;99.20;;;;;;;-4.38;100.00;97995.85;109549;1251;59015;-75
2023/12/10 02:12:52;;;;;;;160.20;97.40;;;;;;;-4.36;100.00;97995.83;109615;1250;59025;-75
2023/12/10 02:15:19;;;;;;;154.90;88.80;;;;;;;-4.33;100.00;98001.81;109583;1251;67014;-74
2023/12/10 02:17:47;;;;;;;155.10;91.20;;;;;;;-4.31;100.00;98005.41;109560;1251;60856;-74
2023/12/10 02:20:16;;;;;;;164.20;92.90;;;;;;;-4.29;100.00;98008.30;109508;1256;65329;-74
2023/12/10 02:23:09;;;;;;;144.20;90.80;;;;;;;-4.26;100.00;98001.46;109360;1251;59057;-75
2023/12/10 02:25:38;;;;;;;160.80;91.50;;;;;;;-4.23;100.00;97994.11;109544;1251;59553;-73
2023/12/10 02:28:08;;;;;;;150.60;89.10;;;;;;;-4.20;100.00;97984.50;109559;1251;67084;-74
2023/12/10 02:30:35;;;;;;;141.00;83.50;;;;;;;-4.17;100.00;97982.71;109585;1251;61033;-75
2023/12/10 02:33:03;;;;;;;146.90;88.20;;;;;;;-4.15;100.00;97990.62;109506;1256;64724;-74
2023/12/10 02:35:29;;;;;;;144.50;85.90;;;;;;;-4.11;100.00;97992.10;109550;1251;58999;-74
2023/12/10 02:37:56;;;;;;;143.00;83.60;;;;;;;-4.09;100.00;97993.96;109554;1251;59012;-73
2023/12/10 02:40:23;;;;;;;146.60;85.40;;;;;;;-4.07;100.00;97999.27;108793;1251;1002978;-74
2023/12/10 02:42:49;;;;;;;132.40;80.70;;;;;;;-4.04;100.00;98003.88;109547;1251;61015;-74
2023/12/10 02:45:16;;;;;;;143.00;84.20;;;;;;;-4.02;100.00;98002.27;109548;1251;65109;-75
2023/12/10 02:47:43;;;;;;;143.50;83.40;;;;;;;-4.01;100.00;98002.77;109348;1251;59061;-75
2023/12/10 02:50:10;;;;;;;139.10;78.80;;;;;;;-3.99;100.00;98007.06;109492;1251;59004;-75
2023/12/10 02:52:37;;;;;;;133.10;80.80;;;;;;;-3.96;100.00;98004.22;109548;1251;65997;-74
2023/12/10 02:55:05;;;;;;;128.40;79.10;;;;;;;-3.94;100.00;98002.27;109255;1251;60316;-74
2023/12/10 02:57:32;;;;;;;136.60;80.10;;;;;;;-3.93;100.00;97997.38;108419;1251;1002693;-75
2023/12/10 02:59:59;;;;;;;134.80;77.40;;;;;;;-3.92;100.00;97991.11;109572;1251;59214;-75
2023/12/10 03:02:25;;;;;;;130.40;76.40;;;;;;;-3.91;100.00;97987.98;109254;1251;59004;-75
2023/12/10 03:04:52;;;;;;;123.30;78.40;;;;;;;-3.90;100.00;97984.46;109606;1251;66108;-75
2023/12/10 03:07:19;;;;;;;122.30;73.80;;;;;;;-3.89;100.00;97984.45;108580;1251;1002414;-74
2023/12/10 03:09:45;;;;;;;134.40;82.80;;;;;;;-3.88;100.00;97979.20;108468;1251;1002263;-75
2023/12/10 03:12:12;;;;;;;128.00;76.80;;;;;;;-3.87;100.00;97974.16;109527;1251;59242;-75
2023/12/10 03:14:39;;;;;;;138.30;79.90;;;;;;;-3.87;100.00;97971.02;109562;1251;58929;-75
2023/12/10 03:17:06;;;;;;;131.00;78.30;;;;;;;-3.86;100.00;97979.52;109547;1255;67093;-75
2023/12/10 03:19:32;;;;;;;135.10;84.00;;;;;;;-3.86;100.00;97981.59;109540;1251;60774;-76
2023/12/10 03:21:59;;;;;;;129.10;77.40;;;;;;;-3.84;100.00;97978.59;109553;1251;63947;-75
2023/12/10 03:24:26;;;;;;;133.60;80.20;;;;;;;-3.84;100.00;97974.42;108489;1251;1002675;-75
2023/12/10 03:26:52;;;;;;;117.80;74.70;;;;;;;-3.83;100.00;97979.07;109546;1251;59124;-74
2023/12/10 03:29:19;;;;;;;125.80;77.20;;;;;;;-3.84;100.00;97979.63;108797;1251;1002905;-75
2023/12/10 03:31:45;;;;;;;125.40;75.10;;;;;;;-3.84;100.00;97982.41;108759;1250;1003039;-75
2023/12/10 03:34:12;;;;;;;122.30;75.30;;;;;;;-3.84;100.00;97985.01;108764;1253;1002192;-75
2023/12/10 03:36:39;;;;;;;118.90;69.70;;;;;;;-3.85;100.00;97992.14;108786;1251;1002418;-74
2023/12/10 03:39:05;;;;;;;127.10;76.40;;;;;;;-3.85;100.00;97992.85;108797;1251;1002939;-75
2023/12/10 03:41:32;;;;;;;126.70;75.80;;;;;;;-3.86;100.00;98000.48;109557;1251;59014;-74
2023/12/10 03:43:59;;;;;;;117.50;73.90;;;;;;;-3.85;100.00;98002.38;109264;1251;61016;-74
2023/12/10 03:46:25;;;;;;;125.50;73.10;;;;;;;-3.84;100.00;98003.42;109534;1251;65178;-75
2023/12/10 03:48:52;;;;;;;115.10;71.80;;;;;;;-3.84;100.00;98000.46;109563;1251;58886;-74
2023/12/10 03:51:19;;;;;;;118.60;70.70;;;;;;;-3.85;100.00;97994.73;109601;1251;59121;-75
2023/12/10 03:53:45;;;;;;;120.10;74.20;;;;;;;-3.85;100.00;97998.75;109527;1251;65981;-73
2023/12/10 03:56:12;;;;;;;126.00;74.90;;;;;;;-3.85;100.00;98003.94;109424;1251;188596;-74
2023/12/10 03:58:39;;;;;;;120.30;71.80;;;;;;;-3.85;100.00;98005.16;109529;1251;65254;-74
2023/12/10 04:01:06;;;;;;;113.90;69.30;;;;;;;-3.85;100.00;98008.13;109516;1251;58927;-74
2023/12/10 04:03:33;;;;;;;113.60;70.70;;;;;;;-3.86;100.00;98001.20;109558;1251;59090;-75
2023/12/10 04:06:00;;;;;;;111.40;67.50;;;;;;;-3.87;100.00;98000.86;109511;1251;75390;-74
2023/12/10 04:08:27;;;;;;;110.40;66.20;;;;;;;-3.87;100.00;98001.22;109520;1251;61127;-75
2023/12/10 04:10:53;;;;;;;103.50;65.00;;;;;;;-3.87;100.00;98000.34;108768;1251;1002702;-76
2023/12/10 04:13:20;;;;;;;110.30;65.50;;;;;;;-3.88;100.00;98005.40;108754;1251;1002271;-73
2023/12/10 04:15:47;;;;;;;101.40;63.80;;;;;;;-3.91;100.00;98000.10;108780;1251;1002332;-75
2023/12/10 04:18:16;;;;;;;105.60;65.70;;;;;;;-3.92;100.00;98003.77;109352;1251;59152;-75
2023/12/10 04:20:44;;;;;;;115.70;70.40;;;;;;;-3.94;100.00;98004.34;109600;1251;60372;-75
2023/12/10 04:23:10;;;;;;;108.20;67.20;;;;;;;-3.96;100.00;98006.14;109571;1251;64926;-75
2023/12/10 04:25:37;;;;;;;118.90;71.20;;;;;;;-3.98;100.00;98015.73;108607;1251;1002191;-75
2023/12/10 04:28:03;;;;;;;109.70;68.60;;;;;;;-3.99;100.00;98013.66;108819;1251;1002338;-75
2023/12/10 04:30:31;;;;;;;116.20;70.10;;;;;;;-3.98;100.00;98020.58;109599;1251;59344;-75
2023/12/10 04:32:57;;;;;;;107.80;65.80;;;;;;;-3.98;100.00;98019.89;108778;1251;1002139;-74
2023/12/10 04:35:24;;;;;;;109.00;67.30;;;;;;;-3.99;100.00;98023.02;109542;1251;59017;-75
2023/12/10 04:37:51;;;;;;;110.10;66.20;;;;;;;-4.00;100.00;98019.59;109517;1251;58949;-75
2023/12/10 04:40:17;;;;;;;98.80;61.80;;;;;;;-4.02;100.00;98017.73;109586;1251;60090;-73
2023/12/10 04:42:44;;;;;;;107.60;67.10;;;;;;;-4.06;100.00;98010.00;109582;1251;59418;-74
2023/12/10 04:45:11;;;;;;;112.90;68.30;;;;;;;-4.06;100.00;98010.88;109600;1250;59431;-74
2023/12/10 04:47:37;;;;;;;105.00;64.80;;;;;;;-4.05;100.00;98012.05;109581;1251;65079;-74
2023/12/10 04:50:04;;;;;;;111.90;68.20;;;;;;;-4.03;100.00;98009.60;109489;1251;59040;-74
2023/12/10 04:52:32;;;;;;;102.90;65.20;;;;;;;-4.00;100.00;98008.30;109355;1251;60829;-74
2023/12/10 04:54:59;;;;;;;105.10;65.20;;;;;;;-3.97;100.00;98012.74;109545;1251;67309;-75
2023/12/10 04:57:26;;;;;;;113.10;68.80;;;;;;;-3.93;100.00;98021.50;109388;1251;59045;-75
2023/12/10 04:59:52;;;;;;;102.60;63.80;;;;;;;-3.91;100.00;98019.52;109570;1251;65710;-74
2023/12/10 05:02:19;;;;;;;102.30;64.50;;;;;;;-3.88;100.00;98021.88;109361;1251;59473;-74
2023/12/10 05:04:46;;;;;;;94.60;59.10;;;;;;;-3.85;100.00;98019.39;109545;1251;58875;-74
2023/12/10 05:07:12;;;;;;;96.90;59.90;;;;;;;-3.82;100.00;98016.02;108825;1251;1002261;-74
2023/12/10 05:09:40;;;;;;;94.40;59.20;;;;;;;-3.79;100.00;98017.85;109532;1251;60113;-75
2023/12/10 05:12:07;;;;;;;93.00;57.80;;;;;;;-3.76;100.00;98016.73;109533;1251;64038;-75
2023/12/10 05:14:34;;;;;;;104.40;62.20;;;;;;;-3.74;100.00;98016.86;109551;1251;58982;-74
2023/12/10 05:17:00;;;;;;;97.60;61.20;;;;;;;-3.73;100.00;98016.84;109543;1251;59079;-74
2023/12/10 05:19:27;;;;;;;94.10;59.90;;;;;;;-3.73;100.00;98017.87;109583;1251;65659;-74
2023/12/10 05:21:53;;;;;;;99.20;62.10;;;;;;;-3.70;100.00;98023.18;109551;1251;61087;-74
2023/12/10 05:24:21;;;;;;;101.70;61.60;;;;;;;-3.67;100.00;98027.80;109531;1251;64976;-73
2023/12/10 05:26:47;;;;;;;100.40;60.30;;;;;;;-3.65;100.00;98041.81;109544;1251;59038;-74
2023/12/10 05:29:14;;;;;;;101.30;61.80;;;;;;;-3.64;100.00;98046.29;109584;1251;59229;-73
2023/12/10 05:31:40;;;;;;;102.70;63.30;;;;;;;-3.62;100.00;98052.30;109576;1251;66155;-75
2023/12/10 05:34:07;;;;;;;96.20;62.50;;;;;;;-3.61;100.00;98052.44;109554;1251;61049;-74
2023/12/10 05:36:33;;;;;;;99.20;64.50;;;;;;;-3.59;100.00;98054.84;109504;1251;65112;-75
2023/12/10 05:39:00;;;;;;;99.70;64.80;;;;;;;-3.58;100.00;98048.55;109569;1251;58965;-74
2023/12/10 05:41:27;;;;;;;100.30;64.20;;;;;;;-3.57;100.00;98052.18;109580;1251;59012;-74
2023/12/10 05:43:54;;;;;;;104.70;64.00;;;;;;;-3.56;100.00;98055.11;109273;1251;65998;-74
2023/12/10 05:46:21;;;;;;;102.30;65.40;;;;;;;-3.55;100.00;98058.20;108793;1251;1002781;-74
2023/12/10 05:48:47;;;;;;;96.40;61.90;;;;;;;-3.52;100.00;98066.98;109579;1251;65142;-74
2023/12/10 05:51:14;;;;;;;99.10;64.30;;;;;;;-3.49;100.00;98071.25;109387;1251;59096;-74
2023/12/10 05:53:41;;;;;;;98.60;61.40;;;;;;;-3.46;100.00;98070.13;109558;1251;59025;-75
2023/12/10 05:56:08;;;;;;;92.70;59.90;;;;;;;-3.43;100.00;98069.36;109573;1250;64719;-76
2023/12/10 05:58:35;;;;;;;88.10;58.30;;;;;;;-3.40;100.00;98076.05;109540;1251;61211;-75
2023/12/10 06:01:02;;;;;;;99.40;63.20;;;;;;;-3.37;100.00;98079.63;109530;1251;65230;-75
2023/12/10 06:03:28;;;;;;;90.00;58.80;;;;;;;-3.33;100.00;98081.60;109563;1251;59024;-75
2023/12/10 06:05:55;;;;;;;88.00;55.40;;;;;;;-3.29;100.00;98085.85;109627;1251;58973;-75
2023/12/10 06:08:22;;;;;;;93.30;56.10;;;;;;;-3.26;100.00;98089.07;109379;1251;67353;-74
2023/12/10 06:10:49;;;;;;;85.50;55.80;;;;;;;-3.22;100.00;98092.61;109588;1251;60068;-74
2023/12/10 06:13:15;;;;;;;98.20;63.50;;;;;;;-3.18;100.00;98096.66;109559;1251;65064;-75
2023/12/10 06:15:43;;;;;;;96.60;59.80;;;;;;;-3.16;100.00;98099.39;109538;1251;59029;-75
2023/12/10 06:18:10;;;;;;;88.40;57.70;;;;;;;-3.13;100.00;98101.23;109529;1251;59123;-74
2023/12/10 06:20:36;;;;;;;89.20;57.60;;;;;;;-3.09;100.00;98104.95;109544;1251;65965;-75
2023/12/10 06:23:03;;;;;;;93.60;56.50;;;;;;;-3.06;100.00;98108.17;109555;1251;61049;-75
2023/12/10 06:25:30;;;;;;;88.00;54.60;;;;;;;-3.04;100.00;98112.80;109560;1251;65304;-75
2023/12/10 06:27:56;;;;;;;93.90;60.30;;;;;;;-3.04;100.00;98112.63;109511;1251;59060;-74
2023/12/10 06:30:23;;;;;;;91.40;58.60;;;;;;;-3.03;100.00;98116.09;109572;1251;58994;-75
2023/12/10 06:32:50;;;;;;;88.60;59.60;;;;;;;-3.01;100.00;98118.47;109416;1254;67089;-76
2023/12/10 06:35:17;;;;;;;93.40;58.90;;;;;;;-2.98;100.00;98119.61;109593;1251;60052;-74
2023/12/10 06:37:44;;;;;;;87.90;55.90;;;;;;;-2.95;100.00;98126.66;109538;1251;65037;-76
2023/12/10 06:40:11;;;;;;;88.90;56.50;;;;;;;-2.92;100.00;98124.48;109560;1251;58956;-75
2023/12/10 06:42:38;;;;;;;83.50;54.50;;;;;;;-2.87;100.00;98125.23;109582;1251;59007;-76
2023/12/10 06:45:05;;;;;;;87.80;55.40;;;;;;;-2.82;100.00;98129.42;109518;1251;67027;-75
2023/12/10 06:47:32;;;;;;;77.10;52.40;;;;;;;-2.75;100.00;98134.11;109550;1251;59844;-75
2023/12/10 06:50:00;;;;;;;87.00;56.10;;;;;;;-2.69;100.00;98136.39;109524;1251;64052;-74
2023/12/10 06:52:26;;;;;;;88.40;55.50;;;;;;;-2.64;100.00;98135.73;109362;1251;59371;-74
2023/12/10 06:54:53;;;;;;;84.40;55.40;;;;;;;-2.61;100.00;98146.05;109577;1251;59016;-75
2023/12/10 06:57:19;;;;;;;82.10;52.70;;;;;;;-2.57;100.00;98153.79;109574;1251;67061;-74
2023/12/10 06:59:46;;;;;;;87.80;55.70;;;;;;;-2.53;100.00;98158.02;109578;1251;60112;-74
2023/12/10 07:02:13;;;;;;;78.10;52.90;;;;;;;-2.49;100.00;98164.34;109552;1251;65511;-74
2023/12/10 07:04:40;;;;;;;90.30;61.00;;;;;;;-2.44;100.00;98163.86;109536;1251;59026;-75
2023/12/10 07:07:06;;;;;;;95.30;64.20;;;;;;;-2.38;100.00;98167.54;109567;1251;58966;-75
2023/12/10 07:09:33;;;;;;;90.80;61.40;;;;;;;-2.32;100.00;98167.34;109600;1251;66162;-74
2023/12/10 07:12:00;;;;;;;97.60;67.80;;;;;;;-2.25;100.00;98173.05;109525;1251;61076;-75
2023/12/10 07:14:26;;;;;;;90.10;62.60;;;;;;;-2.17;100.00;98178.92;109550;1251;64826;-75
2023/12/10 07:16:53;;;;;;;136.70;91.00;;;;;;;-2.10;100.00;98175.94;109545;1251;59252;-74
2023/12/10 07:19:20;;;;;;;128.20;85.40;;;;;;;-2.05;100.00;98181.00;109615;1251;59024;-74
2023/12/10 07:21:48;;;;;;;131.60;85.90;;;;;;;-1.99;100.00;98177.70;109601;1251;65671;-74
2023/12/10 07:24:15;;;;;;;128.10;85.90;;;;;;;-1.91;100.00;98179.02;109585;1251;60025;-75
2023/12/10 07:26:42;;;;;;;108.60;73.10;;;;;;;-1.82;100.00;98182.05;109541;1251;64993;-75
2023/12/10 07:29:08;;;;;;;101.10;69.40;;;;;;;-1.73;100.00;98182.48;109568;1251;58925;-73
2023/12/10 07:31:35;;;;;;;132.50;86.50;;;;;;;-1.64;100.00;98184.15;109570;1251;58972;-75
2023/12/10 07:34:01;;;;;;;125.60;84.70;;;;;;;-1.55;100.00;98189.06;109568;1251;67189;-74
2023/12/10 07:36:28;;;;;;;119.20;80.10;;;;;;;-1.44;100.00;98193.77;109601;1251;61121;-74
2023/12/10 07:38:55;;;;;;;107.50;74.20;;;;;;;-1.36;100.00;98201.36;109539;1251;65055;-75
2023/12/10 07:41:21;;;;;;;92.00;66.50;;;;;;;-1.30;100.00;98199.59;109517;1251;58991;-75
2023/12/10 07:44:05;;;;;;;100.70;69.50;;;;;;;-1.23;100.00;98202.52;109616;1251;59261;-74
2023/12/10 07:46:32;;;;;;;99.70;71.80;;;;;;;-1.18;100.00;98203.91;109611;1251;66994;-75
2023/12/10 07:48:59;;;;;;;95.70;67.70;;;;;;;-1.09;100.00;98207.13;109419;1251;60061;-74
2023/12/10 07:51:25;;;;;;;100.60;73.10;;;;;;;-1.02;100.00;98212.10;109550;1251;65219;-74
2023/12/10 07:53:52;;;;;;;108.40;77.50;;;;;;;-0.94;100.00;98216.91;109605;1251;58966;-74
2023/12/10 07:56:19;;;;;;;107.20;74.10;;;;;;;-0.88;100.00;98225.77;109582;1251;61270;-75
2023/12/10 07:58:45;;;;;;;98.30;67.10;;;;;;;-0.89;100.00;98225.79;109283;1251;64763;-75
2023/12/10 08:01:12;;;;;;;96.50;67.80;;;;;;;-0.88;100.00;98231.02;109573;1251;60081;-75
2023/12/10 08:03:39;;;;;;;94.90;66.90;;;;;;;-0.86;100.00;98230.27;109610;1251;65087;-76
2023/12/10 08:06:06;;;;;;;88.10;62.70;;;;;;;-0.84;100.00;98232.96;109575;1251;59033;-75
2023/12/10 08:08:32;;;;;;;92.90;67.20;;;;;;;-0.83;100.00;98236.26;109595;1251;59350;-75
2023/12/10 08:10:59;;;;;;;98.40;66.10;;;;;;;-0.85;100.00;98241.38;109579;1251;66983;-74
2023/12/10 08:13:26;;;;;;;98.40;67.00;;;;;;;-0.87;100.00;98239.36;109572;1251;61065;-74
2023/12/10 08:15:52;;;;;;;96.70;65.90;;;;;;;-0.87;100.00;98239.53;109582;1251;63934;-75
2023/12/10 08:18:19;;;;;;;95.20;64.80;;;;;;;-0.83;100.00;98242.36;109569;1251;59006;-75
2023/12/10 08:20:46;;;;;;;93.10;63.70;;;;;;;-0.77;100.00;98241.45;109605;1251;58955;-75
2023/12/10 08:23:12;;;;;;;100.80;68.40;;;;;;;-0.72;100.00;98240.60;109550;1251;66129;-75
2023/12/10 08:25:39;;;;;;;98.50;67.60;;;;;;;-0.70;100.00;98246.78;109275;1251;61039;-74
2023/12/10 08:28:05;;;;;;;99.40;68.10;;;;;;;-0.68;100.00;98247.98;109573;1251;65836;-75
2023/12/10 08:30:32;;;;;;;101.70;70.60;;;;;;;-0.65;100.00;98249.61;109518;1251;59030;-74
2023/12/10 08:32:59;;;;;;;101.40;71.60;;;;;;;-0.57;100.00;98254.06;109559;1251;59035;-75
2023/12/10 08:35:26;;;;;;;106.90;73.00;;;;;;;-0.48;100.00;98256.71;109620;1250;66998;-74
2023/12/10 08:37:52;;;;;;;98.40;69.60;;;;;;;-0.40;100.00;98256.26;109609;1251;61046;-75
2023/12/10 08:40:19;;;;;;;102.00;73.10;;;;;;;-0.30;100.00;98255.91;109514;1251;64075;-76
2023/12/10 08:42:46;;;;;;;102.00;69.80;;;;;;;-0.21;100.00;98259.23;109595;1251;58988;-75
2023/12/10 08:45:13;;;;;;;104.60;73.30;;;;;;;-0.13;100.00;98258.98;109581;1251;59072;-75
2023/12/10 08:47:40;;;;;;;121.20;91.30;;;;;;;-0.04;100.00;98254.64;109594;1251;65943;-75
2023/12/10 08:50:07;;;;;;;110.80;84.60;;;;;;;0.03;100.00;98256.68;109593;1251;60076;-74
2023/12/10 08:52:33;;;;;;;102.50;76.40;;;;;;;0.12;100.00;98258.43;109566;1251;65064;-74
2023/12/10 08:55:01;;;;;;;114.00;82.90;;;;;;;0.23;100.00;98260.31;109543;1251;59078;-74
2023/12/10 08:57:28;;;;;;;111.50;82.70;;;;;;;0.33;100.00;98257.65;109581;1251;59795;-74
2023/12/10 09:00:00;;;;;;;106.60;78.00;;;;;;;0.43;100.00;98257.27;109610;1251;65952;-75
2023/12/10 09:02:27;;;;;;;100.60;72.30;;;;;;;0.51;100.00;98258.86;109368;1251;59865;-75
2023/12/10 09:04:53;;;;;;;108.30;77.20;;;;;;;0.57;100.00;98257.27;109600;1251;65044;-75
2023/12/10 09:07:21;;;;;;;115.90;85.40;;;;;;;0.67;100.00;98260.05;109554;1251;59154;-75
2023/12/10 09:09:47;;;;;;;112.60;78.50;;;;;;;0.74;100.00;98267.09;109554;1251;59031;-76
2023/12/10 09:12:14;;;;;;;103.10;76.90;;;;;;;0.78;100.00;98269.04;109558;1252;66996;-74
2023/12/10 09:14:41;;;;;;;111.30;80.40;;;;;;;0.80;100.00;98270.02;109606;1251;60998;-75
2023/12/10 09:17:07;;;;;;;108.00;79.10;;;;;;;0.85;100.00;98270.85;109558;1251;64035;-75
2023/12/10 09:19:34;;;;;;;108.00;80.40;;;;;;;0.91;100.00;98269.23;109528;1252;59051;-75
2023/12/10 09:22:03;;;;;;;119.30;83.70;;;;;;;1.01;100.00;98267.94;109391;1251;59325;-76
2023/12/10 09:24:29;;;;;;;114.80;82.10;;;;;;;1.11;100.00;98265.24;109575;1250;65966;-75
2023/12/10 09:26:56;;;;;;;110.80;77.10;;;;;;;1.19;100.00;98264.77;109575;1251;60122;-76
2023/12/10 09:29:22;;;;;;;111.40;79.40;;;;;;;1.23;100.00;98269.17;109556;1251;63996;-76
2023/12/10 09:31:49;;;;;;;106.40;76.20;;;;;;;1.23;100.00;98265.13;109544;1251;59137;-75
2023/12/10 09:34:19;;;;;;;106.00;75.20;;;;;;;1.20;100.00;98261.23;109588;1251;59031;-74
2023/12/10 09:36:45;;;;;;;109.70;75.90;;;;;;;1.18;100.00;98261.48;109597;1250;67021;-75
2023/12/10 09:39:14;;;;;;;107.70;74.30;;;;;;;1.20;100.00;98259.64;109280;1251;60180;-77
2023/12/10 09:41:41;;;;;;;104.20;73.30;;;;;;;1.24;100.00;98261.77;109532;1251;65023;-75
2023/12/10 09:44:07;;;;;;;108.00;75.50;;;;;;;1.25;100.00;98261.92;109556;1251;59028;-75
2023/12/10 09:46:34;;;;;;;105.60;74.20;;;;;;;1.30;100.00;98258.73;109398;1251;59146;-75
2023/12/10 09:49:01;;;;;;;96.40;68.60;;;;;;;1.38;100.00;98252.45;109551;1251;66023;-75
2023/12/10 09:51:28;;;;;;;92.40;68.10;;;;;;;1.45;100.00;98255.31;109628;1251;60031;-75
2023/12/10 09:53:54;;;;;;;96.80;67.20;;;;;;;1.53;100.00;98256.02;109589;1251;64268;-75
2023/12/10 09:56:21;;;;;;;91.60;68.60;;;;;;;1.58;100.00;98254.78;109521;1251;59037;-75
2023/12/10 09:58:48;;;;;;;88.10;64.30;;;;;;;1.64;100.00;98251.16;109549;1251;60794;-75
2023/12/10 10:01:14;;;;;;;79.40;59.10;;;;;;;1.71;100.00;98260.48;109614;1251;67209;-75
2023/12/10 10:03:41;;;;;;;84.50;59.80;;;;;;;1.74;100.00;98262.29;109571;1250;59938;-75
2023/12/10 10:06:08;;;;;;;86.50;63.30;;;;;;;1.77;100.00;98263.55;109545;1251;64168;-75
2023/12/10 10:08:35;;;;;;;90.60;63.60;;;;;;;1.81;100.00;98267.09;109568;1250;58982;-75
2023/12/10 10:11:02;;;;;;;86.50;64.20;;;;;;;1.85;100.00;98268.66;109583;1251;59096;-74
2023/12/10 10:13:29;;;;;;;81.60;60.20;;;;;;;1.85;100.00;98267.61;109584;1251;74935;-75
2023/12/10 10:15:56;;;;;;;89.00;66.00;;;;;;;1.87;100.00;98267.87;109579;1250;60039;-75
2023/12/10 10:18:22;;;;;;;91.60;67.30;;;;;;;1.89;100.00;98263.39;109601;1251;65307;-75
2023/12/10 10:20:49;;;;;;;87.80;61.70;;;;;;;1.91;100.00;98266.63;109555;1251;58881;-75
2023/12/10 10:23:16;;;;;;;86.70;62.90;;;;;;;1.94;100.00;98266.18;109546;1251;59170;-75
2023/12/10 10:25:42;;;;;;;82.40;60.50;;;;;;;2.00;100.00;98265.56;109546;1251;66971;-76
2023/12/10 10:28:09;;;;;;;95.30;69.90;;;;;;;2.06;100.00;98265.30;109599;1251;61016;-75
2023/12/10 10:30:36;;;;;;;97.10;72.80;;;;;;;2.13;100.00;98264.78;109530;1251;64314;-75
2023/12/10 10:33:03;;;;;;;87.90;65.10;;;;;;;2.25;100.00;98263.39;109567;1251;59204;-74
2023/12/10 10:35:30;;;;;;;85.80;62.80;;;;;;;2.38;100.00;98269.48;109535;1251;60570;-75
2023/12/10 10:37:57;;;;;;;88.20;64.70;;;;;;;2.42;100.00;98269.48;109570;1250;66047;-75
2023/12/10 10:40:24;;;;;;;87.40;68.40;;;;;;;2.49;100.00;98268.61;109552;1251;61075;-75
2023/12/10 10:42:52;;;;;;;86.00;65.20;;;;;;;2.56;100.00;98257.56;109543;1251;64027;-74
2023/12/10 10:45:19;;;;;;;87.00;65.70;;;;;;;2.60;100.00;98259.14;109540;1251;58961;-75
2023/12/10 10:47:46;;;;;;;87.90;67.30;;;;;;;2.61;100.00;98260.88;109616;1251;59017;-74
2023/12/10 10:50:14;;;;;;;95.00;71.50;;;;;;;2.59;100.00;98266.21;109559;1251;66761;-74
2023/12/10 10:52:42;;;;;;;84.20;63.80;;;;;;;2.58;100.00;98261.73;109338;1251;59176;-74
2023/12/10 10:55:10;;;;;;;86.30;66.40;;;;;;;2.56;100.00;98264.60;109587;1251;65080;-75